sensor_id;sensor_type;location;lat;lon;timestamp;pressure;altitude;pressure_sealevel;temperature;humidity
55610;BME280;41486;52.502;13.486;2023-04-01T00:00:30;99138.47;;;9.38;100.00
55610;BME280;41486;52.502;13.486;2023-04-01T00:03:00;99131.75;;;9.26;100.00
55610;BME280;41486;52.502;13.486;2023-04-01T00:05:28;99134.44;;;9.44;100.00
55610;BME280;41486;52.502;13.486;2023-04-01T00:07:57;99125.09;;;9.31;100.00
55610;BME280;41486;52.502;13.486;2023-04-01T00:10:25;99126.13;;;9.21;100.00
55610;BME280;41486;52.502;13.486;2023-04-01T00:12:53;99125.50;;;9.09;100.00
55610;BME280;41486;52.502;13.486;2023-04-01T00:15:21;99130.06;;;9.07;100.00
55610;BME280;41486;52.502;13.486;2023-04-01T00:17:49;99123.31;;;9.04;100.00
55610;BME280;41486;52.502;13.486;2023-04-01T00:20:18;99127.19;;;9.00;100.00
55610;BME280;41486;52.502;13.486;2023-04-01T00:22:46;99134.81;;;8.93;100.00
55610;BME280;41486;52.502;13.486;2023-04-01T00:25:14;99130.91;;;8.97;100.00
55610;BME280;41486;52.502;13.486;2023-04-01T00:27:43;99133.00;;;8.94;100.00
55610;BME280;41486;52.502;13.486;2023-04-01T00:30:11;99126.31;;;9.09;100.00
55610;BME280;41486;52.502;13.486;2023-04-01T00:32:39;99125.66;;;9.07;100.00
55610;BME280;41486;52.502;13.486;2023-04-01T00:35:08;99125.91;;;9.04;100.00
55610;BME280;41486;52.502;13.486;2023-04-01T00:37:38;99124.97;;;9.05;100.00
55610;BME280;41486;52.502;13.486;2023-04-01T00:40:08;99128.84;;;9.01;100.00
55610;BME280;41486;52.502;13.486;2023-04-01T00:42:49;99122.59;;;9.12;100.00
55610;BME280;41486;52.502;13.486;2023-04-01T00:45:29;99126.31;;;9.09;100.00
55610;BME280;41486;52.502;13.486;2023-04-01T00:48:00;99124.56;;;9.00;100.00
55610;BME280;41486;52.502;13.486;2023-04-01T00:50:31;99126.22;;;9.01;100.00
55610;BME280;41486;52.502;13.486;2023-04-01T00:53:02;99127.03;;;9.02;100.00
55610;BME280;41486;52.502;13.486;2023-04-01T00:55:32;99135.06;;;9.00;100.00
55610;BME280;41486;52.502;13.486;2023-04-01T00:58:03;99126.31;;;9.09;100.00
55610;BME280;41486;52.502;13.486;2023-04-01T01:00:34;99126.78;;;9.05;100.00
55610;BME280;41486;52.502;13.486;2023-04-01T01:03:03;99129.41;;;9.05;100.00
55610;BME280;41486;52.502;13.486;2023-04-01T01:05:39;99129.63;;;9.11;100.00
55610;BME280;41486;52.502;13.486;2023-04-01T01:08:25;99133.41;;;9.27;100.00
55610;BME280;41486;52.502;13.486;2023-04-01T01:10:59;99131.22;;;9.22;100.00
55610;BME280;41486;52.502;13.486;2023-04-01T01:13:33;99129.66;;;9.29;100.00
55610;BME280;41486;52.502;13.486;2023-04-01T01:16:06;99120.59;;;9.24;100.00
55610;BME280;41486;52.502;13.486;2023-04-01T01:18:45;99125.44;;;9.19;100.00
55610;BME280;41486;52.502;13.486;2023-04-01T01:21:26;99125.69;;;9.25;100.00
55610;BME280;41486;52.502;13.486;2023-04-01T01:24:13;99131.84;;;9.34;100.00
55610;BME280;41486;52.502;13.486;2023-04-01T01:27:00;99128.38;;;9.15;100.00
55610;BME280;41486;52.502;13.486;2023-04-01T01:30:02;99136.41;;;9.04;100.00
55610;BME280;41486;52.502;13.486;2023-04-01T01:33:09;99140.84;;;9.04;100.00
55610;BME280;41486;52.502;13.486;2023-04-01T01:35:44;99136.53;;;9.12;100.00
55610;BME280;41486;52.502;13.486;2023-04-01T01:38:19;99138.72;;;9.17;100.00
55610;BME280;41486;52.502;13.486;2023-04-01T01:40:59;99139.25;;;9.21;100.00
55610;BME280;41486;52.502;13.486;2023-04-01T01:43:30;99137.59;;;9.20;100.00
55610;BME280;41486;52.502;13.486;2023-04-01T01:46:02;99135.50;;;9.23;100.00
55610;BME280;41486;52.502;13.486;2023-04-01T01:48:34;99141.09;;;9.38;100.00
55610;BME280;41486;52.502;13.486;2023-04-01T01:51:05;99134.84;;;9.21;100.00
55610;BME280;41486;52.502;13.486;2023-04-01T01:53:33;99141.34;;;9.17;100.00
55610;BME280;41486;52.502;13.486;2023-04-01T01:56:02;99145.50;;;9.38;100.00
55610;BME280;41486;52.502;13.486;2023-04-01T01:58:38;99141.88;;;9.21;100.00
55610;BME280;41486;52.502;13.486;2023-04-01T02:01:16;99144.41;;;9.12;100.00
55610;BME280;41486;52.502;13.486;2023-04-01T02:03:46;99143.81;;;9.19;100.00
55610;BME280;41486;52.502;13.486;2023-04-01T02:06:18;99143.28;;;9.15;100.00
55610;BME280;41486;52.502;13.486;2023-04-01T02:08:50;99149.31;;;9.25;100.00
55610;BME280;41486;52.502;13.486;2023-04-01T02:11:23;99144.06;;;9.25;100.00
55610;BME280;41486;52.502;13.486;2023-04-01T02:13:55;99148.91;;;9.48;100.00
55610;BME280;41486;52.502;13.486;2023-04-01T02:16:28;99151.66;;;9.28;100.00
55610;BME280;41486;52.502;13.486;2023-04-01T02:19:00;99151.13;;;9.25;100.00
55610;BME280;41486;52.502;13.486;2023-04-01T02:21:35;99147.25;;;9.47;100.00
55610;BME280;41486;52.502;13.486;2023-04-01T02:24:09;99148.25;;;9.18;100.00
55610;BME280;41486;52.502;13.486;2023-04-01T02:26:39;99147.84;;;9.41;100.00
55610;BME280;41486;52.502;13.486;2023-04-01T02:29:09;99150.53;;;9.31;100.00
55610;BME280;41486;52.502;13.486;2023-04-01T02:31:39;99150.50;;;9.59;100.00
55610;BME280;41486;52.502;13.486;2023-04-01T02:34:09;99146.53;;;9.55;100.00
55610;BME280;41486;52.502;13.486;2023-04-01T02:36:38;99152.03;;;9.34;100.00
55610;BME280;41486;52.502;13.486;2023-04-01T02:39:07;99158.84;;;9.26;100.00
55610;BME280;41486;52.502;13.486;2023-04-01T02:41:39;99147.56;;;9.16;100.00
55610;BME280;41486;52.502;13.486;2023-04-01T02:44:07;99157.91;;;9.45;100.00
55610;BME280;41486;52.502;13.486;2023-04-01T02:46:35;99162.00;;;9.30;100.00
55610;BME280;41486;52.502;13.486;2023-04-01T02:49:04;99156.38;;;9.25;100.00
55610;BME280;41486;52.502;13.486;2023-04-01T02:51:32;99167.63;;;9.35;100.00
55610;BME280;41486;52.502;13.486;2023-04-01T02:54:02;99165.63;;;9.47;100.00
55610;BME280;41486;52.502;13.486;2023-04-01T02:56:30;99166.03;;;9.24;100.00
55610;BME280;41486;52.502;13.486;2023-04-01T02:58:58;99174.06;;;9.23;100.00
55610;BME280;41486;52.502;13.486;2023-04-01T03:01:26;99183.72;;;9.22;100.00
55610;BME280;41486;52.502;13.486;2023-04-01T03:03:55;99175.31;;;9.19;100.00
55610;BME280;41486;52.502;13.486;2023-04-01T03:06:23;99177.94;;;9.19;100.00
55610;BME280;41486;52.502;13.486;2023-04-01T03:08:52;99181.97;;;9.13;100.00
55610;BME280;41486;52.502;13.486;2023-04-01T03:11:21;99174.34;;;9.20;100.00
55610;BME280;41486;52.502;13.486;2023-04-01T03:13:49;99175.03;;;9.22;100.00
55610;BME280;41486;52.502;13.486;2023-04-01T03:16:18;99174.91;;;9.13;100.00
55610;BME280;41486;52.502;13.486;2023-04-01T03:18:46;99175.22;;;9.38;100.00
55610;BME280;41486;52.502;13.486;2023-04-01T03:21:18;99171.72;;;9.20;100.00
55610;BME280;41486;52.502;13.486;2023-04-01T03:23:47;99181.44;;;9.37;100.00
55610;BME280;41486;52.502;13.486;2023-04-01T03:26:15;99180.75;;;9.35;100.00
55610;BME280;41486;52.502;13.486;2023-04-01T03:28:45;99185.09;;;9.26;100.00
55610;BME280;41486;52.502;13.486;2023-04-01T03:31:13;99183.16;;;9.28;100.00
55610;BME280;41486;52.502;13.486;2023-04-01T03:33:48;99188.44;;;9.19;100.00
55610;BME280;41486;52.502;13.486;2023-04-01T03:36:17;99187.88;;;9.15;100.00
55610;BME280;41486;52.502;13.486;2023-04-01T03:38:46;99190.09;;;9.20;100.00
55610;BME280;41486;52.502;13.486;2023-04-01T03:41:20;99192.31;;;9.14;100.00
55610;BME280;41486;52.502;13.486;2023-04-01T03:43:49;99195.06;;;9.23;100.00
55610;BME280;41486;52.502;13.486;2023-04-01T03:46:18;99192.88;;;9.18;100.00
55610;BME280;41486;52.502;13.486;2023-04-01T03:48:46;99202.09;;;9.22;100.00
55610;BME280;41486;52.502;13.486;2023-04-01T03:51:14;99202.09;;;9.22;100.00
55610;BME280;41486;52.502;13.486;2023-04-01T03:53:42;99207.66;;;9.19;100.00
55610;BME280;41486;52.502;13.486;2023-04-01T03:56:11;99198.66;;;9.22;100.00
55610;BME280;41486;52.502;13.486;2023-04-01T03:58:39;99210.97;;;9.21;100.00
55610;BME280;41486;52.502;13.486;2023-04-01T04:01:17;99208.06;;;9.14;100.00
55610;BME280;41486;52.502;13.486;2023-04-01T04:03:46;99209.72;;;9.15;100.00
55610;BME280;41486;52.502;13.486;2023-04-01T04:06:17;99218.41;;;9.16;100.00
55610;BME280;41486;52.502;13.486;2023-04-01T04:08:46;99220.22;;;9.15;100.00
55610;BME280;41486;52.502;13.486;2023-04-01T04:11:14;99218.41;;;9.16;100.00
55610;BME280;41486;52.502;13.486;2023-04-01T04:13:42;99218.41;;;9.16;100.00
55610;BME280;41486;52.502;13.486;2023-04-01T04:16:11;99224.31;;;9.28;100.00
55610;BME280;41486;52.502;13.486;2023-04-01T04:18:45;99221.41;;;9.31;100.00
55610;BME280;41486;52.502;13.486;2023-04-01T04:21:14;99224.03;;;9.31;100.00
55610;BME280;41486;52.502;13.486;2023-04-01T04:23:43;99220.97;;;9.36;100.00
55610;BME280;41486;52.502;13.486;2023-04-01T04:26:14;99213.53;;;9.59;100.00
55610;BME280;41486;52.502;13.486;2023-04-01T04:28:48;99221.91;;;9.72;100.00
55610;BME280;41486;52.502;13.486;2023-04-01T04:31:19;99216.66;;;9.44;100.00
55610;BME280;41486;52.502;13.486;2023-04-01T04:33:50;99226.50;;;9.32;100.00
55610;BME280;41486;52.502;13.486;2023-04-01T04:36:21;99232.72;;;9.41;100.00
55610;BME280;41486;52.502;13.486;2023-04-01T04:38:50;99227.72;;;9.66;100.00
55610;BME280;41486;52.502;13.486;2023-04-01T04:41:19;99232.78;;;9.50;100.00
55610;BME280;41486;52.502;13.486;2023-04-01T04:43:51;99231.72;;;9.42;100.00
55610;BME280;41486;52.502;13.486;2023-04-01T04:46:20;99235.34;;;9.41;100.00
55610;BME280;41486;52.502;13.486;2023-04-01T04:48:54;99237.56;;;9.36;100.00
55610;BME280;41486;52.502;13.486;2023-04-01T04:51:23;99238.66;;;9.34;100.00
55610;BME280;41486;52.502;13.486;2023-04-01T04:53:51;99243.09;;;9.33;100.00
55610;BME280;41486;52.502;13.486;2023-04-01T04:56:27;99245.97;;;9.40;100.00
55610;BME280;41486;52.502;13.486;2023-04-01T04:59:06;99239.63;;;9.32;100.00
55610;BME280;41486;52.502;13.486;2023-04-01T05:01:42;99239.47;;;9.34;100.00
55610;BME280;41486;52.502;13.486;2023-04-01T05:04:12;99244.63;;;9.26;100.00
55610;BME280;41486;52.502;13.486;2023-04-01T05:06:40;99243.53;;;9.28;100.00
55610;BME280;41486;52.502;13.486;2023-04-01T05:09:09;99244.63;;;9.26;100.00
55610;BME280;41486;52.502;13.486;2023-04-01T05:11:39;99247.25;;;9.26;100.00
55610;BME280;41486;52.502;13.486;2023-04-01T05:14:12;99254.69;;;9.30;100.00
55610;BME280;41486;52.502;13.486;2023-04-01T05:16:42;99249.16;;;9.34;100.00
55610;BME280;41486;52.502;13.486;2023-04-01T05:19:11;99247.88;;;9.47;100.00
55610;BME280;41486;52.502;13.486;2023-04-01T05:21:39;99247.34;;;9.34;100.00
55610;BME280;41486;52.502;13.486;2023-04-01T05:24:08;99246.13;;;9.38;100.00
55610;BME280;41486;52.502;13.486;2023-04-01T05:26:37;99250.78;;;9.44;100.00
55610;BME280;41486;52.502;13.486;2023-04-01T05:29:05;99259.09;;;9.40;100.00
55610;BME280;41486;52.502;13.486;2023-04-01T05:31:33;99257.16;;;9.42;100.00
55610;BME280;41486;52.502;13.486;2023-04-01T05:34:03;99259.09;;;9.40;100.00
55610;BME280;41486;52.502;13.486;2023-04-01T05:36:32;99253.41;;;9.44;100.00
55610;BME280;41486;52.502;13.486;2023-04-01T05:39:01;99257.69;;;9.45;100.00
55610;BME280;41486;52.502;13.486;2023-04-01T05:41:29;99260.25;;;9.65;100.00
55610;BME280;41486;52.502;13.486;2023-04-01T05:43:57;99263.69;;;9.66;100.00
55610;BME280;41486;52.502;13.486;2023-04-01T05:46:57;99264.19;;;9.51;100.00
55610;BME280;41486;52.502;13.486;2023-04-01T05:49:26;99270.97;;;9.44;100.00
55610;BME280;41486;52.502;13.486;2023-04-01T05:51:56;99270.13;;;9.43;100.00
55610;BME280;41486;52.502;13.486;2023-04-01T05:54:25;99277.19;;;9.43;100.00
55610;BME280;41486;52.502;13.486;2023-04-01T05:56:53;99280.94;;;9.40;100.00
55610;BME280;41486;52.502;13.486;2023-04-01T05:59:21;99282.66;;;9.22;100.00
55610;BME280;41486;52.502;13.486;2023-04-01T06:01:49;99283.34;;;9.24;100.00
55610;BME280;41486;52.502;13.486;2023-04-01T06:04:19;99289.91;;;9.47;100.00
55610;BME280;41486;52.502;13.486;2023-04-01T06:06:48;99288.25;;;9.46;100.00
55610;BME280;41486;52.502;13.486;2023-04-01T06:09:19;99286.47;;;9.37;100.00
55610;BME280;41486;52.502;13.486;2023-04-01T06:12:18;99295.88;;;9.30;100.00
55610;BME280;41486;52.502;13.486;2023-04-01T06:15:01;99295.72;;;9.31;100.00
55610;BME280;41486;52.502;13.486;2023-04-01T06:17:47;99307.19;;;9.40;100.00
55610;BME280;41486;52.502;13.486;2023-04-01T06:20:21;99298.59;;;9.48;100.00
55610;BME280;41486;52.502;13.486;2023-04-01T06:23:15;99303.16;;;9.46;100.00
55610;BME280;41486;52.502;13.486;2023-04-01T06:26:07;99309.13;;;9.38;100.00
55610;BME280;41486;52.502;13.486;2023-04-01T06:29:00;99311.03;;;9.46;100.00
55610;BME280;41486;52.502;13.486;2023-04-01T06:31:50;99316.03;;;9.29;100.00
55610;BME280;41486;52.502;13.486;2023-04-01T06:35:01;99332.47;;;9.31;100.00
55610;BME280;41486;52.502;13.486;2023-04-01T06:37:47;99329.97;;;9.40;100.00
55610;BME280;41486;52.502;13.486;2023-04-01T06:40:29;99329.97;;;9.40;100.00
55610;BME280;41486;52.502;13.486;2023-04-01T06:43:10;99328.34;;;9.29;100.00
55610;BME280;41486;52.502;13.486;2023-04-01T06:46:11;99337.28;;;9.46;100.00
55610;BME280;41486;52.502;13.486;2023-04-01T06:49:17;99335.78;;;9.43;100.00
55610;BME280;41486;52.502;13.486;2023-04-01T06:52:15;99340.13;;;9.72;100.00
55610;BME280;41486;52.502;13.486;2023-04-01T06:55:21;99331.72;;;9.59;100.00
55610;BME280;41486;52.502;13.486;2023-04-01T06:58:20;99330.59;;;9.61;100.00
55610;BME280;41486;52.502;13.486;2023-04-01T07:00:51;99335.31;;;9.58;100.00
55610;BME280;41486;52.502;13.486;2023-04-01T07:03:26;99332.25;;;9.62;100.00
55610;BME280;41486;52.502;13.486;2023-04-01T07:06:03;99328.59;;;9.83;100.00
55610;BME280;41486;52.502;13.486;2023-04-01T07:08:41;99336.97;;;9.69;100.00
55610;BME280;41486;52.502;13.486;2023-04-01T07:11:15;99339.44;;;9.98;100.00
55610;BME280;41486;52.502;13.486;2023-04-01T07:14:06;99338.09;;;9.94;100.00
55610;BME280;41486;52.502;13.486;2023-04-01T07:16:43;99349.28;;;9.96;100.00
55610;BME280;41486;52.502;13.486;2023-04-01T07:19:18;99342.59;;;9.74;100.00
55610;BME280;41486;52.502;13.486;2023-04-01T07:22:01;99338.44;;;9.81;100.00
55610;BME280;41486;52.502;13.486;2023-04-01T07:24:54;99345.06;;;10.13;100.00
55610;BME280;41486;52.502;13.486;2023-04-01T07:27:24;99348.56;;;10.32;100.00
55610;BME280;41486;52.502;13.486;2023-04-01T07:29:55;99347.19;;;10.27;100.00
55610;BME280;41486;52.502;13.486;2023-04-01T07:32:31;99343.16;;;10.61;100.00
55610;BME280;41486;52.502;13.486;2023-04-01T07:35:11;99338.78;;;10.52;100.00
55610;BME280;41486;52.502;13.486;2023-04-01T07:37:48;99351.81;;;10.16;100.00
55610;BME280;41486;52.502;13.486;2023-04-01T07:40:28;99351.72;;;10.07;100.00
55610;BME280;41486;52.502;13.486;2023-04-01T07:43:21;99356.00;;;10.08;100.00
55610;BME280;41486;52.502;13.486;2023-04-01T07:46:26;99358.69;;;9.99;100.00
55610;BME280;41486;52.502;13.486;2023-04-01T07:49:03;99356.84;;;10.09;100.00
55610;BME280;41486;52.502;13.486;2023-04-01T07:51:38;99359.16;;;10.12;100.00
55610;BME280;41486;52.502;13.486;2023-04-01T07:54:14;99360.00;;;10.13;100.00
55610;BME280;41486;52.502;13.486;2023-04-01T07:56:51;99361.28;;;10.36;100.00
55610;BME280;41486;52.502;13.486;2023-04-01T07:59:34;99357.03;;;10.53;100.00
55610;BME280;41486;52.502;13.486;2023-04-01T08:02:28;99359.50;;;10.55;100.00
55610;BME280;41486;52.502;13.486;2023-04-01T08:05:08;99356.75;;;10.56;100.00
55610;BME280;41486;52.502;13.486;2023-04-01T08:07:45;99366.25;;;10.12;100.00
55610;BME280;41486;52.502;13.486;2023-04-01T08:10:45;99373.63;;;9.98;100.00
55610;BME280;41486;52.502;13.486;2023-04-01T08:13:42;99384.38;;;9.77;100.00
55610;BME280;41486;52.502;13.486;2023-04-01T08:16:44;99394.88;;;9.77;100.00
55610;BME280;41486;52.502;13.486;2023-04-01T08:19:31;99395.56;;;9.69;100.00
55610;BME280;41486;52.502;13.486;2023-04-01T08:22:09;99390.34;;;9.50;100.00
55610;BME280;41486;52.502;13.486;2023-04-01T08:24:42;99389.91;;;9.54;100.00
55610;BME280;41486;52.502;13.486;2023-04-01T08:27:23;99399.34;;;9.47;100.00
55610;BME280;41486;52.502;13.486;2023-04-01T08:29:58;99400.06;;;9.39;100.00
55610;BME280;41486;52.502;13.486;2023-04-01T08:32:31;99405.03;;;9.23;100.00
55610;BME280;41486;52.502;13.486;2023-04-01T08:35:14;99411.97;;;9.24;100.00
55610;BME280;41486;52.502;13.486;2023-04-01T08:37:48;99405.47;;;9.18;100.00
55610;BME280;41486;52.502;13.486;2023-04-01T08:46:46;99416.38;;;9.04;100.00
55610;BME280;41486;52.502;13.486;2023-04-01T08:49:36;99421.88;;;9.00;100.00
55610;BME280;41486;52.502;13.486;2023-04-01T08:52:29;99424.91;;;8.96;100.00
55610;BME280;41486;52.502;13.486;2023-04-01T08:55:25;99423.13;;;9.06;100.00
55610;BME280;41486;52.502;13.486;2023-04-01T09:01:48;99425.06;;;9.14;100.00
55610;BME280;41486;52.502;13.486;2023-04-01T09:07:41;99420.25;;;9.19;100.00
55610;BME280;41486;52.502;13.486;2023-04-01T09:13:46;99418.72;;;9.26;100.00
55610;BME280;41486;52.502;13.486;2023-04-01T09:16:29;99423.56;;;9.21;100.00
55610;BME280;41486;52.502;13.486;2023-04-01T09:19:20;99442.75;;;9.31;100.00
55610;BME280;41486;52.502;13.486;2023-04-01T09:25:23;99439.00;;;9.34;100.00
55610;BME280;41486;52.502;13.486;2023-04-01T09:28:05;99441.66;;;9.24;100.00
55610;BME280;41486;52.502;13.486;2023-04-01T09:34:13;99454.78;;;9.05;100.00
55610;BME280;41486;52.502;13.486;2023-04-01T09:37:13;99450.09;;;9.18;100.00
55610;BME280;41486;52.502;13.486;2023-04-01T09:39:59;99464.88;;;9.29;100.00
55610;BME280;41486;52.502;13.486;2023-04-01T09:42:42;99466.94;;;9.15;100.00
55610;BME280;41486;52.502;13.486;2023-04-01T09:45:48;99461.41;;;9.09;100.00
55610;BME280;41486;52.502;13.486;2023-04-01T09:48:37;99466.25;;;9.13;100.00
55610;BME280;41486;52.502;13.486;2023-04-01T09:51:23;99472.19;;;9.15;100.00
55610;BME280;41486;52.502;13.486;2023-04-01T09:54:04;99479.66;;;9.20;100.00
55610;BME280;41486;52.502;13.486;2023-04-01T09:57:14;99478.53;;;9.32;100.00
55610;BME280;41486;52.502;13.486;2023-04-01T10:00:19;99473.84;;;9.17;100.00
55610;BME280;41486;52.502;13.486;2023-04-01T10:06:40;;;;9.05;
55610;BME280;41486;52.502;13.486;2023-04-01T10:12:43;99482.06;;;8.73;100.00
55610;BME280;41486;52.502;13.486;2023-04-01T10:15:39;99487.19;;;8.84;100.00
55610;BME280;41486;52.502;13.486;2023-04-01T10:21:46;99493.53;;;8.91;100.00
55610;BME280;41486;52.502;13.486;2023-04-01T10:24:49;99496.47;;;8.98;100.00
55610;BME280;41486;52.502;13.486;2023-04-01T10:27:35;99493.16;;;9.06;100.00
55610;BME280;41486;52.502;13.486;2023-04-01T10:33:55;99497.28;;;8.98;100.00
55610;BME280;41486;52.502;13.486;2023-04-01T10:36:52;99502.56;;;9.08;100.00
55610;BME280;41486;52.502;13.486;2023-04-01T10:43:06;99510.41;;;8.98;100.00
55610;BME280;41486;52.502;13.486;2023-04-01T10:46:11;99506.97;;;9.08;100.00
55610;BME280;41486;52.502;13.486;2023-04-01T10:55:33;99508.63;;;9.09;100.00
55610;BME280;41486;52.502;13.486;2023-04-01T11:08:56;99514.81;;;8.88;100.00
55610;BME280;41486;52.502;13.486;2023-04-01T11:18:11;99521.97;;;8.86;100.00
55610;BME280;41486;52.502;13.486;2023-04-01T11:24:06;99530.78;;;8.75;100.00
55610;BME280;41486;52.502;13.486;2023-04-01T11:27:00;99535.16;;;8.65;100.00
55610;BME280;41486;52.502;13.486;2023-04-01T11:30:05;99538.69;;;8.85;100.00
55610;BME280;41486;52.502;13.486;2023-04-01T11:32:46;99542.81;;;8.78;100.00
55610;BME280;41486;52.502;13.486;2023-04-01T11:35:28;99545.81;;;8.73;100.00
55610;BME280;41486;52.502;13.486;2023-04-01T11:38:22;99547.56;;;8.63;100.00
55610;BME280;41486;52.502;13.486;2023-04-01T11:41:22;99554.31;;;8.56;100.00
55610;BME280;41486;52.502;13.486;2023-04-01T11:44:15;99557.69;;;8.77;100.00
55610;BME280;41486;52.502;13.486;2023-04-01T11:47:12;99561.56;;;8.73;100.00
55610;BME280;41486;52.502;13.486;2023-04-01T11:49:52;99565.47;;;8.89;100.00
55610;BME280;41486;52.502;13.486;2023-04-01T11:55:50;99571.53;;;8.79;100.00
55610;BME280;41486;52.502;13.486;2023-04-01T11:58:44;99583.06;;;8.67;100.00
55610;BME280;41486;52.502;13.486;2023-04-01T12:01:36;99580.72;;;8.64;100.00
55610;BME280;41486;52.502;13.486;2023-04-01T12:04:50;99581.09;;;8.59;100.00
55610;BME280;41486;52.502;13.486;2023-04-01T12:07:49;99590.44;;;8.52;100.00
55610;BME280;41486;52.502;13.486;2023-04-01T12:10:20;99591.28;;;8.52;100.00
55610;BME280;41486;52.502;13.486;2023-04-01T12:12:55;99588.41;;;8.56;100.00
55610;BME280;41486;52.502;13.486;2023-04-01T12:15:35;99592.72;;;8.45;100.00
55610;BME280;41486;52.502;13.486;2023-04-01T12:18:13;99597.28;;;8.43;100.00
55610;BME280;41486;52.502;13.486;2023-04-01T12:20:49;99604.44;;;8.62;100.00
55610;BME280;41486;52.502;13.486;2023-04-01T12:23:32;99599.44;;;8.38;100.00
55610;BME280;41486;52.502;13.486;2023-04-01T12:26:16;99605.63;;;8.48;100.00
55610;BME280;41486;52.502;13.486;2023-04-01T12:28:59;99608.56;;;8.55;100.00
55610;BME280;41486;52.502;13.486;2023-04-01T12:31:38;99611.06;;;8.45;100.00
55610;BME280;41486;52.502;13.486;2023-04-01T12:37:13;99612.69;;;8.58;100.00
55610;BME280;41486;52.502;13.486;2023-04-01T12:39:59;99617.97;;;8.46;100.00
55610;BME280;41486;52.502;13.486;2023-04-01T12:42:41;99622.66;;;8.43;100.00
55610;BME280;41486;52.502;13.486;2023-04-01T12:45:29;99621.78;;;8.53;100.00
55610;BME280;41486;52.502;13.486;2023-04-01T12:48:41;99630.66;;;8.41;100.00
55610;BME280;41486;52.502;13.486;2023-04-01T12:51:31;99633.13;;;8.43;100.00
55610;BME280;41486;52.502;13.486;2023-04-01T12:54:56;99633.41;;;8.40;100.00
55610;BME280;41486;52.502;13.486;2023-04-01T12:57:41;99635.16;;;8.50;100.00
55610;BME280;41486;52.502;13.486;2023-04-01T13:03:24;99643.16;;;8.49;100.00
55610;BME280;41486;52.502;13.486;2023-04-01T13:06:32;99639.34;;;8.20;100.00
55610;BME280;41486;52.502;13.486;2023-04-01T13:09:14;99644.66;;;8.30;100.00
55610;BME280;41486;52.502;13.486;2023-04-01T13:11:51;99644.31;;;8.24;100.00
55610;BME280;41486;52.502;13.486;2023-04-01T13:14:50;99650.16;;;8.27;100.00
55610;BME280;41486;52.502;13.486;2023-04-01T13:17:31;99659.22;;;8.23;100.00
55610;BME280;41486;52.502;13.486;2023-04-01T13:20:11;99660.81;;;8.14;100.00
55610;BME280;41486;52.502;13.486;2023-04-01T13:22:55;99662.84;;;8.11;100.00
55610;BME280;41486;52.502;13.486;2023-04-01T13:25:27;99668.66;;;7.93;100.00
55610;BME280;41486;52.502;13.486;2023-04-01T13:28:09;99674.06;;;8.01;100.00
55610;BME280;41486;52.502;13.486;2023-04-01T13:30:46;99670.75;;;7.99;100.00
55610;BME280;41486;52.502;13.486;2023-04-01T13:33:24;99686.22;;;8.02;100.00
55610;BME280;41486;52.502;13.486;2023-04-01T13:36:08;99686.84;;;7.95;100.00
55610;BME280;41486;52.502;13.486;2023-04-01T13:42:12;99680.91;;;7.81;100.00
55610;BME280;41486;52.502;13.486;2023-04-01T13:44:48;99690.44;;;7.82;100.00
55610;BME280;41486;52.502;13.486;2023-04-01T13:47:49;99697.25;;;7.73;100.00
55610;BME280;41486;52.502;13.486;2023-04-01T13:50:29;99693.91;;;7.83;100.00
55610;BME280;41486;52.502;13.486;2023-04-01T13:53:27;99703.03;;;8.00;100.00
55610;BME280;41486;52.502;13.486;2023-04-01T13:56:16;99702.19;;;7.99;100.00
55610;BME280;41486;52.502;13.486;2023-04-01T13:59:04;99696.16;;;7.87;100.00
55610;BME280;41486;52.502;13.486;2023-04-01T14:01:40;99704.38;;;7.83;100.00
55610;BME280;41486;52.502;13.486;2023-04-01T14:04:31;99704.88;;;7.77;100.00
55610;BME280;41486;52.502;13.486;2023-04-01T14:07:12;99710.13;;;7.77;100.00
55610;BME280;41486;52.502;13.486;2023-04-01T14:09:56;99710.00;;;7.67;100.00
55610;BME280;41486;52.502;13.486;2023-04-01T14:12:38;99710.44;;;7.83;100.00
55610;BME280;41486;52.502;13.486;2023-04-01T14:15:29;99719.84;;;7.86;100.00
55610;BME280;41486;52.502;13.486;2023-04-01T14:18:27;99723.53;;;7.95;100.00
55610;BME280;41486;52.502;13.486;2023-04-01T14:21:12;99731.81;;;7.45;100.00
55610;BME280;41486;52.502;13.486;2023-04-01T14:24:15;99736.91;;;7.57;100.00
55610;BME280;41486;52.502;13.486;2023-04-01T14:30:20;99743.94;;;7.68;100.00
55610;BME280;41486;52.502;13.486;2023-04-01T14:33:01;99751.06;;;7.66;100.00
55610;BME280;41486;52.502;13.486;2023-04-01T14:35:37;99753.81;;;7.42;100.00
55610;BME280;41486;52.502;13.486;2023-04-01T14:38:39;99743.94;;;7.57;100.00
55610;BME280;41486;52.502;13.486;2023-04-01T14:41:20;99759.44;;;7.60;100.00
55610;BME280;41486;52.502;13.486;2023-04-01T14:44:05;99763.59;;;7.40;100.00
55610;BME280;41486;52.502;13.486;2023-04-01T14:47:08;99766.09;;;7.53;100.00
55610;BME280;41486;52.502;13.486;2023-04-01T14:49:41;99758.44;;;7.72;100.00
55610;BME280;41486;52.502;13.486;2023-04-01T14:52:13;99773.56;;;7.69;100.00
55610;BME280;41486;52.502;13.486;2023-04-01T14:54:44;99769.66;;;7.52;100.00
55610;BME280;41486;52.502;13.486;2023-04-01T14:57:16;99766.28;;;7.61;100.00
55610;BME280;41486;52.502;13.486;2023-04-01T14:59:51;99777.84;;;7.70;100.00
55610;BME280;41486;52.502;13.486;2023-04-01T15:02:45;99777.63;;;7.62;100.00
55610;BME280;41486;52.502;13.486;2023-04-01T15:05:29;99789.28;;;7.57;100.00
55610;BME280;41486;52.502;13.486;2023-04-01T15:08:08;99783.69;;;7.51;100.00
55610;BME280;41486;52.502;13.486;2023-04-01T15:10:58;99782.72;;;7.40;100.00
55610;BME280;41486;52.502;13.486;2023-04-01T15:13:56;99799.13;;;7.31;100.00
55610;BME280;41486;52.502;13.486;2023-04-01T15:16:31;99795.44;;;7.34;100.00